Aviation Digital Data Service (ADDS)

Output produced by METARs form (1344 UTC 26 May 2018)
found at http://www.aviationweather.gov/adds/metars/
 
MUSC 261100Z 2612/2712 11008KT 9000 SCT020 OVC050 
     TEMPO 2612/2624 5000 SHRA SCT015CB BKN040
       
AMD MUCU 261200Z 2612/2712 VRB03KT 9000 SCT020 BKN060 
     TEMPO 2612/2614 5000 SHRA SCT020CB 
     BECMG 2615/2617 18008KT
       
AMD MUHG 261155Z 2612/2712 09008KT 9000 FEW020 BKN080 
     TEMPO 2612/2620 VRB10KT 3000 TSRA RA SCT015CB BKN040
       
TAF MUGM 2607/2707 35006KT 9999 VCSH FEW030 SCT100 SCT280 QNH2986INS 
     BECMG 2615/2617 14012G18KT 9999 VCTS SCT030CB BKN080 BKN250 QNH2984INS 
     TEMPO 2617/2622 VRB15G20KT BKN030CB OVC050 
     FM262200 13012KT 9999 FEW025 SCT080 BKN280 QNH2980INS 
     FM270300 35006KT 9999 SCT120 SCT280 QNH2985INS T23/2611Z T32/2618Z FN00172
       
MUCM 261100Z 2612/2712 08008KT 9000 SCT020 
     TEMPO 2617/2624 VRB10KT 3000 TSRA RA SCT015CB BKN040
       
MUCF 261100Z 2612/2624 09008KT 9000 SCT020 OVC070 
     TEMPO 2612/2624 VRB10KT 3000 TSRA RA SCT015CB BKN040
       
AMD MUCC 261251Z 2613/2712 VRB03KT 9000 FEW015 OVC080 
     TEMPO 2613/2621 VRB10KT 3000 TSRA RA SCT015CB BKN040
       
MUHA 261100Z 2612/2712 16012KT 8000 FEW020 OVC060 
     TEMPO 2612/2708 18020KT 4000 TSRA SCT020CB BKN040
       
MUVR 261100Z 2612/2712 10008KT 9000 SCT020 OVC060 
     TEMPO 2612/2624 5000 TSRA RA SCT015CB BKN040
       
MUCL 261100Z 2612/2624 10012KT 9000 SCT020 OVC080 
     TEMPO 2612/2624 VRB10KT 3000 TSRA RA SCT015CB BKN040